KGTU

Georgetown Municipal Airport

Georgetown, Texas, USA
METAR KGTU 201956Z 20006KT 10SM BKN070 BKN090 36/20 A2998 RMK AO2 SLPNO T03610200
Observed Flight Rules
Aug-20 @ 19:56 UTC (34 minutes ago) Visual Flight Rules
Wind Visibility Clouds
200° at 6 knots 10 miles
  • Broken at 7,000' AGL
  • Broken at 9,000' AGL
Temperatures Readings
Current 36°C / 97°F
Dewpoint 20°C / 68°F
Humidity 39%
Altimeter 29.98" Hg
Pressure 1015 hPa
Elevation 240
METAR KGTU 201956Z 20006KT 10SM BKN070 BKN090 36/20 A2998 RMK AO2 SLPNO T03610200
Observed Flight Rules
Aug-20 @ 19:56 UTC
(34 minutes ago)
VFR
Wind Visibility
200° at 6 knots 10 miles
Clouds
  • Broken at 7,000' AGL
  • Broken at 9,000' AGL
Temperature Dewpoint
36°C / 97°F 20°C / 68°F
Humidity Altimeter Pressure
39% 29.98" Hg 1015 hPa